METAR Data
IDs: Format: Raw Decoded Include TAF

Data at: 1939 UTC 31 Jul 2021

METAR for:KCGS (College Park Arpt, MD, US)
Text:KCGS 311915Z AUTO 27005KT 10SM CLR 26/11 A2997 RMK AO1 T02610110
Temperature: 26.1°C ( 79°F)
Dewpoint: 11.0°C ( 52°F) [RH = 39%]
Pressure (altimeter):29.97 inches Hg (1015.0 mb)
Winds:from the W (270 degrees) at 6 MPH (5 knots; 2.6 m/s)
Visibility:10 or more sm (16+ km)
Ceiling:at least 12,000 feet AGL
Clouds:sky clear below 12,000 feet AGL
QC Flag:automated observation with no human augmentation